Chihuahua, Texas
Current Conditions -  °F | °C
As of 9:53 AM on Friday 19 Dec 2014 (Local Time) from KMFE Reporting Station
Haze Haze  
Wind Chill: 64°   Ceiling: 500
Heat Index: 64°   Visibility: 4mi
Dew Point: 63°   Wind: 7mph
Humidity: 96%   Direction: 300°WNW
Pressure: 30.04"   Gusts: NA
Location:  26.2167°N, 98.325°W
Report Text: KMFE 191553Z 30006KT 4SM BR OVC005 18/17 A3004 RMK AO2 SLP171 T01780172
Loading
Personal Weather Stations






























Interactive Weather Map New forecast layout! Learn more

10-Day Weather Forecast

Advertisements
Track Severe Weather on mobile